Terminal Aerodrome Forecast
Issued by NWS Wilmington, OH

Current Version | Previous Version | Graphics & Text | Print | Product List | Glossary On
Versions: 1 2 3 4 5 6 7 8 9 10 11 12 13 14 15 16 17 18
000
FTUS41 KILN 221739
TAFILN
TAF
KILN 221739Z 2218/2318 24010KT P6SM VCTS BKN035CB
      TEMPO 2220/2222 25008G20KT 4SM TSRA BR OVC025CB
     FM222300 28008KT P6SM VCSH BKN060
     FM230100 34004KT P6SM BKN100
     FM230900 01003KT 4SM BR BKN008
     FM231300 03006KT P6SM SCT250=

USA.gov is the U.S. government's official web portal to all federal, state and local government web resources and services.